Smackover, Arkansas
Current Conditions -  °F | °C
As of 12:22 AM on Monday 22 Dec 2014 (Local Time) from KELD Reporting Station
Broken Clouds Broken Clouds  
Wind Chill: 42°   Ceiling: 1100
Heat Index: 46°   Visibility: 10mi
Dew Point: 44°   Wind: 8mph
Humidity: 93%   Direction: 230°SW
Pressure: 29.88"   Gusts: NA
Location:  33.36°N, 92.72°W
Report Text: KELD 220622Z AUTO 23007KT 10SM BKN011 08/07 A2988 RMK AO2 CIG 008V011 PRESRR T00780067
Loading
Personal Weather Stations






























Interactive Weather Map New forecast layout! Learn more

10-Day Weather Forecast

Advertisements
Track Severe Weather on mobile